sensor_id;sensor_type;location;lat;lon;timestamp;temperature;humidity
68922;DHT22;55959;51.244;5.724;2022-12-11T00:00:45;4.30;78.80
68922;DHT22;55959;51.244;5.724;2022-12-11T00:03:11;4.30;78.80
68922;DHT22;55959;51.244;5.724;2022-12-11T00:05:40;4.30;78.90
68922;DHT22;55959;51.244;5.724;2022-12-11T00:08:06;4.30;78.90
68922;DHT22;55959;51.244;5.724;2022-12-11T00:10:32;4.30;78.90
68922;DHT22;55959;51.244;5.724;2022-12-11T00:12:58;4.30;78.90
68922;DHT22;55959;51.244;5.724;2022-12-11T00:15:24;4.30;78.80
68922;DHT22;55959;51.244;5.724;2022-12-11T00:17:50;4.30;78.70
68922;DHT22;55959;51.244;5.724;2022-12-11T00:20:15;4.30;78.70
68922;DHT22;55959;51.244;5.724;2022-12-11T00:22:41;4.30;78.70
68922;DHT22;55959;51.244;5.724;2022-12-11T00:25:07;4.30;78.90
68922;DHT22;55959;51.244;5.724;2022-12-11T00:27:33;4.30;78.90
68922;DHT22;55959;51.244;5.724;2022-12-11T00:29:59;4.30;78.90
68922;DHT22;55959;51.244;5.724;2022-12-11T00:32:25;4.40;78.90
68922;DHT22;55959;51.244;5.724;2022-12-11T00:34:51;4.40;79.00
68922;DHT22;55959;51.244;5.724;2022-12-11T00:37:17;4.40;78.90
68922;DHT22;55959;51.244;5.724;2022-12-11T00:39:42;4.40;78.90
68922;DHT22;55959;51.244;5.724;2022-12-11T00:42:08;4.40;78.90
68922;DHT22;55959;51.244;5.724;2022-12-11T00:44:34;4.40;78.90
68922;DHT22;55959;51.244;5.724;2022-12-11T00:47:00;4.40;78.80
68922;DHT22;55959;51.244;5.724;2022-12-11T00:49:26;4.40;78.80
68922;DHT22;55959;51.244;5.724;2022-12-11T00:51:52;4.40;78.70
68922;DHT22;55959;51.244;5.724;2022-12-11T00:54:18;4.40;78.70
68922;DHT22;55959;51.244;5.724;2022-12-11T00:56:44;4.40;78.70
68922;DHT22;55959;51.244;5.724;2022-12-11T00:59:10;4.40;78.70
68922;DHT22;55959;51.244;5.724;2022-12-11T01:01:35;4.40;78.70
68922;DHT22;55959;51.244;5.724;2022-12-11T01:04:01;4.40;78.70
68922;DHT22;55959;51.244;5.724;2022-12-11T01:06:28;4.40;78.80
68922;DHT22;55959;51.244;5.724;2022-12-11T01:08:55;4.40;78.90
68922;DHT22;55959;51.244;5.724;2022-12-11T01:11:41;4.40;78.90
68922;DHT22;55959;51.244;5.724;2022-12-11T01:14:08;4.40;78.90
68922;DHT22;55959;51.244;5.724;2022-12-11T01:16:35;4.40;78.90
68922;DHT22;55959;51.244;5.724;2022-12-11T01:19:00;4.40;78.90
68922;DHT22;55959;51.244;5.724;2022-12-11T01:21:27;4.40;79.00
68922;DHT22;55959;51.244;5.724;2022-12-11T01:23:53;4.40;79.00
68922;DHT22;55959;51.244;5.724;2022-12-11T01:26:19;4.40;79.00
68922;DHT22;55959;51.244;5.724;2022-12-11T01:28:48;4.50;79.00
68922;DHT22;55959;51.244;5.724;2022-12-11T01:31:16;4.50;78.90
68922;DHT22;55959;51.244;5.724;2022-12-11T01:33:43;4.40;78.90
68922;DHT22;55959;51.244;5.724;2022-12-11T01:36:11;4.50;79.10
68922;DHT22;55959;51.244;5.724;2022-12-11T01:38:41;4.50;79.10
68922;DHT22;55959;51.244;5.724;2022-12-11T01:41:08;4.50;79.10
68922;DHT22;55959;51.244;5.724;2022-12-11T01:43:34;4.50;78.90
68922;DHT22;55959;51.244;5.724;2022-12-11T01:46:34;4.50;78.90
68922;DHT22;55959;51.244;5.724;2022-12-11T01:49:06;4.50;78.90
68922;DHT22;55959;51.244;5.724;2022-12-11T01:51:39;4.50;78.90
68922;DHT22;55959;51.244;5.724;2022-12-11T01:54:10;4.50;78.90
68922;DHT22;55959;51.244;5.724;2022-12-11T01:56:38;4.50;78.90
68922;DHT22;55959;51.244;5.724;2022-12-11T01:59:07;4.50;78.90
68922;DHT22;55959;51.244;5.724;2022-12-11T02:01:44;4.50;78.90
68922;DHT22;55959;51.244;5.724;2022-12-11T02:04:12;4.50;78.90
68922;DHT22;55959;51.244;5.724;2022-12-11T02:06:41;4.50;78.80
68922;DHT22;55959;51.244;5.724;2022-12-11T02:09:14;4.50;78.90
68922;DHT22;55959;51.244;5.724;2022-12-11T02:14:29;4.50;78.90
68922;DHT22;55959;51.244;5.724;2022-12-11T02:17:09;4.50;78.90
68922;DHT22;55959;51.244;5.724;2022-12-11T02:20:06;4.50;78.90
68922;DHT22;55959;51.244;5.724;2022-12-11T02:28:57;4.50;79.10
68922;DHT22;55959;51.244;5.724;2022-12-11T02:31:41;4.50;79.00
68922;DHT22;55959;51.244;5.724;2022-12-11T02:34:25;4.50;79.10
68922;DHT22;55959;51.244;5.724;2022-12-11T02:37:01;4.50;79.10
68922;DHT22;55959;51.244;5.724;2022-12-11T02:39:30;4.50;79.10
68922;DHT22;55959;51.244;5.724;2022-12-11T02:41:58;4.50;79.90
68922;DHT22;55959;51.244;5.724;2022-12-11T02:44:27;4.50;79.90
68922;DHT22;55959;51.244;5.724;2022-12-11T02:46:56;4.60;79.10
68922;DHT22;55959;51.244;5.724;2022-12-11T02:49:23;4.60;79.00
68922;DHT22;55959;51.244;5.724;2022-12-11T02:51:51;4.60;79.00
68922;DHT22;55959;51.244;5.724;2022-12-11T02:54:24;4.60;79.00
68922;DHT22;55959;51.244;5.724;2022-12-11T02:57:26;4.60;79.90
68922;DHT22;55959;51.244;5.724;2022-12-11T02:59:57;4.70;79.10
68922;DHT22;55959;51.244;5.724;2022-12-11T03:02:23;4.70;79.00
68922;DHT22;55959;51.244;5.724;2022-12-11T03:04:50;4.70;79.00
68922;DHT22;55959;51.244;5.724;2022-12-11T03:07:23;4.70;78.90
68922;DHT22;55959;51.244;5.724;2022-12-11T03:09:52;4.70;78.80
68922;DHT22;55959;51.244;5.724;2022-12-11T03:12:22;4.70;78.70
68922;DHT22;55959;51.244;5.724;2022-12-11T03:14:50;4.70;78.70
68922;DHT22;55959;51.244;5.724;2022-12-11T03:20:07;4.80;78.70
68922;DHT22;55959;51.244;5.724;2022-12-11T03:25:34;4.80;78.50
68922;DHT22;55959;51.244;5.724;2022-12-11T03:28:13;4.70;78.40
68922;DHT22;55959;51.244;5.724;2022-12-11T03:30:41;4.80;78.50
68922;DHT22;55959;51.244;5.724;2022-12-11T03:33:14;4.80;78.50
68922;DHT22;55959;51.244;5.724;2022-12-11T03:35:48;4.70;78.40
68922;DHT22;55959;51.244;5.724;2022-12-11T03:38:40;4.80;78.50
68922;DHT22;55959;51.244;5.724;2022-12-11T03:41:10;4.80;78.50
68922;DHT22;55959;51.244;5.724;2022-12-11T03:43:37;4.80;78.50
68922;DHT22;55959;51.244;5.724;2022-12-11T03:46:07;4.80;78.50
68922;DHT22;55959;51.244;5.724;2022-12-11T03:48:35;4.80;78.50
68922;DHT22;55959;51.244;5.724;2022-12-11T03:51:05;4.80;78.40
68922;DHT22;55959;51.244;5.724;2022-12-11T03:53:33;4.80;78.40
68922;DHT22;55959;51.244;5.724;2022-12-11T03:56:01;4.80;78.30
68922;DHT22;55959;51.244;5.724;2022-12-11T03:58:28;4.80;78.20
68922;DHT22;55959;51.244;5.724;2022-12-11T04:00:54;4.80;78.20
68922;DHT22;55959;51.244;5.724;2022-12-11T04:03:20;4.90;78.30
68922;DHT22;55959;51.244;5.724;2022-12-11T04:05:48;4.80;78.30
68922;DHT22;55959;51.244;5.724;2022-12-11T04:08:19;4.90;78.20
68922;DHT22;55959;51.244;5.724;2022-12-11T04:10:45;4.90;78.10
68922;DHT22;55959;51.244;5.724;2022-12-11T04:13:12;4.90;78.10
68922;DHT22;55959;51.244;5.724;2022-12-11T04:15:38;4.90;77.90
68922;DHT22;55959;51.244;5.724;2022-12-11T04:18:05;4.90;78.70
68922;DHT22;55959;51.244;5.724;2022-12-11T04:20:55;4.90;77.90
68922;DHT22;55959;51.244;5.724;2022-12-11T04:23:39;4.90;77.90
68922;DHT22;55959;51.244;5.724;2022-12-11T04:26:24;4.90;77.70
68922;DHT22;55959;51.244;5.724;2022-12-11T04:28:50;4.90;77.60
68922;DHT22;55959;51.244;5.724;2022-12-11T04:31:18;4.90;77.50
68922;DHT22;55959;51.244;5.724;2022-12-11T04:33:45;4.90;77.50
68922;DHT22;55959;51.244;5.724;2022-12-11T04:36:12;4.90;77.40
68922;DHT22;55959;51.244;5.724;2022-12-11T04:38:38;4.90;77.30
68922;DHT22;55959;51.244;5.724;2022-12-11T04:41:07;4.90;77.10
68922;DHT22;55959;51.244;5.724;2022-12-11T04:43:37;4.80;76.90
68922;DHT22;55959;51.244;5.724;2022-12-11T04:48:32;4.90;76.90
68922;DHT22;55959;51.244;5.724;2022-12-11T04:50:58;4.80;76.90
68922;DHT22;55959;51.244;5.724;2022-12-11T04:53:24;4.80;76.90
68922;DHT22;55959;51.244;5.724;2022-12-11T04:55:50;4.80;76.70
68922;DHT22;55959;51.244;5.724;2022-12-11T04:58:16;4.80;76.70
68922;DHT22;55959;51.244;5.724;2022-12-11T05:00:42;4.80;76.60
68922;DHT22;55959;51.244;5.724;2022-12-11T05:03:08;4.80;76.60
68922;DHT22;55959;51.244;5.724;2022-12-11T05:05:34;4.80;76.60
68922;DHT22;55959;51.244;5.724;2022-12-11T05:08:00;4.80;76.50
68922;DHT22;55959;51.244;5.724;2022-12-11T05:10:25;4.80;76.40
68922;DHT22;55959;51.244;5.724;2022-12-11T05:12:51;4.80;76.50
68922;DHT22;55959;51.244;5.724;2022-12-11T05:15:17;4.90;76.60
68922;DHT22;55959;51.244;5.724;2022-12-11T05:17:42;4.90;76.50
68922;DHT22;55959;51.244;5.724;2022-12-11T05:20:10;4.90;76.50
68922;DHT22;55959;51.244;5.724;2022-12-11T05:22:37;4.80;76.50
68922;DHT22;55959;51.244;5.724;2022-12-11T05:25:04;4.90;76.50
68922;DHT22;55959;51.244;5.724;2022-12-11T05:27:30;4.90;76.50
68922;DHT22;55959;51.244;5.724;2022-12-11T05:29:56;4.90;76.40
68922;DHT22;55959;51.244;5.724;2022-12-11T05:32:21;4.90;76.30
68922;DHT22;55959;51.244;5.724;2022-12-11T05:34:49;4.90;76.10
68922;DHT22;55959;51.244;5.724;2022-12-11T05:37:15;4.90;76.10
68922;DHT22;55959;51.244;5.724;2022-12-11T05:39:40;4.90;76.00
68922;DHT22;55959;51.244;5.724;2022-12-11T05:42:06;4.90;75.90
68922;DHT22;55959;51.244;5.724;2022-12-11T05:44:32;4.90;75.80
68922;DHT22;55959;51.244;5.724;2022-12-11T05:46:58;4.90;75.80
68922;DHT22;55959;51.244;5.724;2022-12-11T05:49:24;4.90;75.80
68922;DHT22;55959;51.244;5.724;2022-12-11T05:51:49;4.90;75.90
68922;DHT22;55959;51.244;5.724;2022-12-11T05:54:15;4.90;75.80
68922;DHT22;55959;51.244;5.724;2022-12-11T05:56:41;4.90;75.70
68922;DHT22;55959;51.244;5.724;2022-12-11T05:59:07;4.90;75.70
68922;DHT22;55959;51.244;5.724;2022-12-11T06:01:39;4.90;75.50
68922;DHT22;55959;51.244;5.724;2022-12-11T06:04:07;4.90;75.60
68922;DHT22;55959;51.244;5.724;2022-12-11T06:06:35;4.90;75.50
68922;DHT22;55959;51.244;5.724;2022-12-11T06:09:03;4.90;75.30
68922;DHT22;55959;51.244;5.724;2022-12-11T06:11:30;4.90;75.30
68922;DHT22;55959;51.244;5.724;2022-12-11T06:13:57;4.90;75.30
68922;DHT22;55959;51.244;5.724;2022-12-11T06:16:23;4.90;75.30
68922;DHT22;55959;51.244;5.724;2022-12-11T06:18:51;4.90;75.30
68922;DHT22;55959;51.244;5.724;2022-12-11T06:21:22;4.90;75.30
68922;DHT22;55959;51.244;5.724;2022-12-11T06:23:51;4.90;75.40
68922;DHT22;55959;51.244;5.724;2022-12-11T06:26:18;4.90;75.30
68922;DHT22;55959;51.244;5.724;2022-12-11T06:28:45;4.90;75.10
68922;DHT22;55959;51.244;5.724;2022-12-11T06:31:11;4.90;75.10
68922;DHT22;55959;51.244;5.724;2022-12-11T06:33:38;4.90;75.10
68922;DHT22;55959;51.244;5.724;2022-12-11T06:36:07;4.90;75.20
68922;DHT22;55959;51.244;5.724;2022-12-11T06:38:34;4.90;75.20
68922;DHT22;55959;51.244;5.724;2022-12-11T06:41:02;4.90;75.10
68922;DHT22;55959;51.244;5.724;2022-12-11T06:43:32;4.80;75.10
68922;DHT22;55959;51.244;5.724;2022-12-11T06:46:03;4.90;75.20
68922;DHT22;55959;51.244;5.724;2022-12-11T06:48:32;4.90;75.20
68922;DHT22;55959;51.244;5.724;2022-12-11T06:50:58;4.90;75.20
68922;DHT22;55959;51.244;5.724;2022-12-11T06:53:24;4.90;76.00
68922;DHT22;55959;51.244;5.724;2022-12-11T06:55:49;4.90;75.10
68922;DHT22;55959;51.244;5.724;2022-12-11T06:58:15;4.90;75.20
68922;DHT22;55959;51.244;5.724;2022-12-11T07:00:41;4.90;75.10
68922;DHT22;55959;51.244;5.724;2022-12-11T07:03:08;4.90;76.00
68922;DHT22;55959;51.244;5.724;2022-12-11T07:05:34;4.90;75.10
68922;DHT22;55959;51.244;5.724;2022-12-11T07:08:00;4.90;74.90
68922;DHT22;55959;51.244;5.724;2022-12-11T07:10:26;4.90;74.90
68922;DHT22;55959;51.244;5.724;2022-12-11T07:12:54;4.90;74.90
68922;DHT22;55959;51.244;5.724;2022-12-11T07:15:19;4.90;74.80
68922;DHT22;55959;51.244;5.724;2022-12-11T07:17:45;4.90;74.90
68922;DHT22;55959;51.244;5.724;2022-12-11T07:20:11;4.90;74.70
68922;DHT22;55959;51.244;5.724;2022-12-11T07:22:37;4.90;74.60
68922;DHT22;55959;51.244;5.724;2022-12-11T07:25:03;4.90;74.50
68922;DHT22;55959;51.244;5.724;2022-12-11T07:27:29;4.90;74.40
68922;DHT22;55959;51.244;5.724;2022-12-11T07:29:54;4.90;74.30
68922;DHT22;55959;51.244;5.724;2022-12-11T07:32:21;4.90;74.30
68922;DHT22;55959;51.244;5.724;2022-12-11T07:34:50;4.90;74.30
68922;DHT22;55959;51.244;5.724;2022-12-11T07:37:16;4.80;74.20
68922;DHT22;55959;51.244;5.724;2022-12-11T07:39:42;4.90;74.10
68922;DHT22;55959;51.244;5.724;2022-12-11T07:42:07;4.80;74.00
68922;DHT22;55959;51.244;5.724;2022-12-11T07:44:33;4.80;73.90
68922;DHT22;55959;51.244;5.724;2022-12-11T07:46:59;4.80;73.90
68922;DHT22;55959;51.244;5.724;2022-12-11T07:49:24;4.80;73.80
68922;DHT22;55959;51.244;5.724;2022-12-11T07:51:50;4.80;73.90
68922;DHT22;55959;51.244;5.724;2022-12-11T07:54:16;4.80;74.00
68922;DHT22;55959;51.244;5.724;2022-12-11T07:56:43;4.70;73.90
68922;DHT22;55959;51.244;5.724;2022-12-11T07:59:10;4.80;74.10
68922;DHT22;55959;51.244;5.724;2022-12-11T08:01:36;4.80;74.20
68922;DHT22;55959;51.244;5.724;2022-12-11T08:04:08;4.80;74.60
68922;DHT22;55959;51.244;5.724;2022-12-11T08:06:37;4.80;74.30
68922;DHT22;55959;51.244;5.724;2022-12-11T08:09:06;4.80;74.20
68922;DHT22;55959;51.244;5.724;2022-12-11T08:11:34;4.80;74.30
68922;DHT22;55959;51.244;5.724;2022-12-11T08:14:00;4.80;74.30
68922;DHT22;55959;51.244;5.724;2022-12-11T08:16:26;4.80;74.30
68922;DHT22;55959;51.244;5.724;2022-12-11T08:18:53;4.80;74.30
68922;DHT22;55959;51.244;5.724;2022-12-11T08:21:22;4.80;74.20
68922;DHT22;55959;51.244;5.724;2022-12-11T08:23:51;4.90;74.30
68922;DHT22;55959;51.244;5.724;2022-12-11T08:26:28;4.90;74.30
68922;DHT22;55959;51.244;5.724;2022-12-11T08:28:54;4.90;74.30
68922;DHT22;55959;51.244;5.724;2022-12-11T08:31:20;4.90;74.30
68922;DHT22;55959;51.244;5.724;2022-12-11T08:33:47;4.90;74.30
68922;DHT22;55959;51.244;5.724;2022-12-11T08:36:16;4.90;74.10
68922;DHT22;55959;51.244;5.724;2022-12-11T08:38:43;4.90;74.00
68922;DHT22;55959;51.244;5.724;2022-12-11T08:43:41;4.90;74.00
68922;DHT22;55959;51.244;5.724;2022-12-11T08:46:08;4.90;73.70
68922;DHT22;55959;51.244;5.724;2022-12-11T08:48:35;4.90;73.70
68922;DHT22;55959;51.244;5.724;2022-12-11T08:51:03;4.90;73.80
68922;DHT22;55959;51.244;5.724;2022-12-11T08:53:32;4.80;73.70
68922;DHT22;55959;51.244;5.724;2022-12-11T08:56:03;4.90;73.90
68922;DHT22;55959;51.244;5.724;2022-12-11T08:58:30;4.80;74.00
68922;DHT22;55959;51.244;5.724;2022-12-11T09:00:56;4.90;74.00
68922;DHT22;55959;51.244;5.724;2022-12-11T09:03:23;4.90;74.10
68922;DHT22;55959;51.244;5.724;2022-12-11T09:05:49;4.90;74.10
68922;DHT22;55959;51.244;5.724;2022-12-11T09:08:15;4.90;74.00
68922;DHT22;55959;51.244;5.724;2022-12-11T09:10:40;4.90;74.00
68922;DHT22;55959;51.244;5.724;2022-12-11T09:13:06;4.90;73.90
68922;DHT22;55959;51.244;5.724;2022-12-11T09:15:32;4.90;73.90
68922;DHT22;55959;51.244;5.724;2022-12-11T09:17:58;4.90;73.70
68922;DHT22;55959;51.244;5.724;2022-12-11T09:20:24;4.90;73.70
68922;DHT22;55959;51.244;5.724;2022-12-11T09:22:49;4.90;73.70
68922;DHT22;55959;51.244;5.724;2022-12-11T09:25:15;4.90;73.80
68922;DHT22;55959;51.244;5.724;2022-12-11T09:27:41;4.90;73.90
68922;DHT22;55959;51.244;5.724;2022-12-11T09:30:07;4.90;74.10
68922;DHT22;55959;51.244;5.724;2022-12-11T09:32:33;4.90;74.10
68922;DHT22;55959;51.244;5.724;2022-12-11T09:34:59;4.90;74.00
68922;DHT22;55959;51.244;5.724;2022-12-11T09:37:25;5.00;74.10
68922;DHT22;55959;51.244;5.724;2022-12-11T09:39:50;5.00;74.10
68922;DHT22;55959;51.244;5.724;2022-12-11T09:42:42;5.00;74.10
68922;DHT22;55959;51.244;5.724;2022-12-11T09:45:14;5.00;74.10
68922;DHT22;55959;51.244;5.724;2022-12-11T09:47:43;5.00;74.00
68922;DHT22;55959;51.244;5.724;2022-12-11T09:50:17;5.10;74.10
68922;DHT22;55959;51.244;5.724;2022-12-11T09:55:25;5.10;74.00
68922;DHT22;55959;51.244;5.724;2022-12-11T10:00:43;5.10;73.90
68922;DHT22;55959;51.244;5.724;2022-12-11T10:06:06;5.10;74.00
68922;DHT22;55959;51.244;5.724;2022-12-11T10:09:05;5.10;73.70
68922;DHT22;55959;51.244;5.724;2022-12-11T10:17:18;5.20;73.70
68922;DHT22;55959;51.244;5.724;2022-12-11T10:19:46;5.10;73.60
68922;DHT22;55959;51.244;5.724;2022-12-11T10:22:25;5.10;73.70
68922;DHT22;55959;51.244;5.724;2022-12-11T10:25:05;5.10;73.70
68922;DHT22;55959;51.244;5.724;2022-12-11T10:27:34;5.10;73.40
68922;DHT22;55959;51.244;5.724;2022-12-11T10:30:19;5.10;73.50
68922;DHT22;55959;51.244;5.724;2022-12-11T10:35:54;5.10;73.50
68922;DHT22;55959;51.244;5.724;2022-12-11T10:38:33;5.10;73.30
68922;DHT22;55959;51.244;5.724;2022-12-11T10:41:09;5.10;73.20
68922;DHT22;55959;51.244;5.724;2022-12-11T10:43:43;5.10;73.30
68922;DHT22;55959;51.244;5.724;2022-12-11T10:46:16;5.10;73.50
68922;DHT22;55959;51.244;5.724;2022-12-11T10:48:46;5.10;73.50
68922;DHT22;55959;51.244;5.724;2022-12-11T10:51:28;5.10;73.40
68922;DHT22;55959;51.244;5.724;2022-12-11T10:54:06;5.10;73.40
68922;DHT22;55959;51.244;5.724;2022-12-11T10:56:44;5.10;73.60
68922;DHT22;55959;51.244;5.724;2022-12-11T10:59:22;5.10;73.70
68922;DHT22;55959;51.244;5.724;2022-12-11T11:01:50;5.20;73.90
68922;DHT22;55959;51.244;5.724;2022-12-11T11:04:26;5.20;73.70
68922;DHT22;55959;51.244;5.724;2022-12-11T11:07:25;5.20;73.80
68922;DHT22;55959;51.244;5.724;2022-12-11T11:12:47;5.20;73.70
68922;DHT22;55959;51.244;5.724;2022-12-11T11:15:19;5.20;73.70
68922;DHT22;55959;51.244;5.724;2022-12-11T11:17:52;5.20;73.90
68922;DHT22;55959;51.244;5.724;2022-12-11T11:20:26;5.20;74.00
68922;DHT22;55959;51.244;5.724;2022-12-11T11:22:56;5.30;74.00
68922;DHT22;55959;51.244;5.724;2022-12-11T11:25:25;5.30;74.00
68922;DHT22;55959;51.244;5.724;2022-12-11T11:28:06;5.30;73.80
68922;DHT22;55959;51.244;5.724;2022-12-11T11:30:40;5.30;73.70
68922;DHT22;55959;51.244;5.724;2022-12-11T11:33:16;5.40;73.50
68922;DHT22;55959;51.244;5.724;2022-12-11T11:36:16;5.40;73.40
68922;DHT22;55959;51.244;5.724;2022-12-11T11:38:51;5.40;73.40
68922;DHT22;55959;51.244;5.724;2022-12-11T11:41:26;5.40;73.20
68922;DHT22;55959;51.244;5.724;2022-12-11T11:43:59;5.40;73.10
68922;DHT22;55959;51.244;5.724;2022-12-11T11:46:51;5.40;73.10
68922;DHT22;55959;51.244;5.724;2022-12-11T11:49:37;5.40;73.00
68922;DHT22;55959;51.244;5.724;2022-12-11T11:56:02;5.40;73.10
68922;DHT22;55959;51.244;5.724;2022-12-11T12:01:58;5.40;72.90
68922;DHT22;55959;51.244;5.724;2022-12-11T12:04:31;5.40;72.90
68922;DHT22;55959;51.244;5.724;2022-12-11T12:10:25;5.40;72.70
68922;DHT22;55959;51.244;5.724;2022-12-11T12:13:00;5.40;72.50
68922;DHT22;55959;51.244;5.724;2022-12-11T12:15:56;5.40;72.60
68922;DHT22;55959;51.244;5.724;2022-12-11T12:18:49;5.40;72.90
68922;DHT22;55959;51.244;5.724;2022-12-11T12:27:20;5.40;72.30
68922;DHT22;55959;51.244;5.724;2022-12-11T12:30:01;5.40;72.50
68922;DHT22;55959;51.244;5.724;2022-12-11T12:35:49;5.40;72.70
68922;DHT22;55959;51.244;5.724;2022-12-11T12:38:28;5.40;72.30
68922;DHT22;55959;51.244;5.724;2022-12-11T12:46:32;5.40;72.10
68922;DHT22;55959;51.244;5.724;2022-12-11T12:49:39;5.50;72.30
68922;DHT22;55959;51.244;5.724;2022-12-11T12:52:29;5.40;72.00
68922;DHT22;55959;51.244;5.724;2022-12-11T12:55:00;5.50;71.90
68922;DHT22;55959;51.244;5.724;2022-12-11T12:57:42;5.40;71.80
68922;DHT22;55959;51.244;5.724;2022-12-11T13:00:10;5.50;72.00
68922;DHT22;55959;51.244;5.724;2022-12-11T13:02:45;5.50;71.90
68922;DHT22;55959;51.244;5.724;2022-12-11T13:05:20;5.50;71.90
68922;DHT22;55959;51.244;5.724;2022-12-11T13:07:49;5.50;71.90
68922;DHT22;55959;51.244;5.724;2022-12-11T13:10:22;5.50;71.70
68922;DHT22;55959;51.244;5.724;2022-12-11T13:12:50;5.50;71.70
68922;DHT22;55959;51.244;5.724;2022-12-11T13:17:51;5.50;71.60
68922;DHT22;55959;51.244;5.724;2022-12-11T13:20:20;5.50;71.50
68922;DHT22;55959;51.244;5.724;2022-12-11T13:22:55;5.50;71.50
68922;DHT22;55959;51.244;5.724;2022-12-11T13:25:55;5.50;71.50
68922;DHT22;55959;51.244;5.724;2022-12-11T13:28:33;5.60;71.70
68922;DHT22;55959;51.244;5.724;2022-12-11T13:33:46;5.50;71.20
68922;DHT22;55959;51.244;5.724;2022-12-11T13:39:07;5.50;71.30
68922;DHT22;55959;51.244;5.724;2022-12-11T13:41:39;5.50;71.40
68922;DHT22;55959;51.244;5.724;2022-12-11T13:44:17;5.50;71.30
68922;DHT22;55959;51.244;5.724;2022-12-11T13:46:48;5.50;71.10
68922;DHT22;55959;51.244;5.724;2022-12-11T13:49:22;5.50;71.10
68922;DHT22;55959;51.244;5.724;2022-12-11T13:51:57;5.50;71.10
68922;DHT22;55959;51.244;5.724;2022-12-11T13:54:25;5.50;71.20
68922;DHT22;55959;51.244;5.724;2022-12-11T13:56:54;5.40;71.20
68922;DHT22;55959;51.244;5.724;2022-12-11T13:59:55;5.40;71.30
68922;DHT22;55959;51.244;5.724;2022-12-11T14:02:32;5.40;71.20
68922;DHT22;55959;51.244;5.724;2022-12-11T14:05:02;5.40;71.30
68922;DHT22;55959;51.244;5.724;2022-12-11T14:07:51;5.40;71.40
68922;DHT22;55959;51.244;5.724;2022-12-11T14:10:23;5.40;71.30
68922;DHT22;55959;51.244;5.724;2022-12-11T14:13:05;5.40;71.20
68922;DHT22;55959;51.244;5.724;2022-12-11T14:15:43;5.40;71.10
68922;DHT22;55959;51.244;5.724;2022-12-11T14:18:17;5.40;71.10
68922;DHT22;55959;51.244;5.724;2022-12-11T14:20:53;5.40;71.10
68922;DHT22;55959;51.244;5.724;2022-12-11T14:23:26;5.40;71.10
68922;DHT22;55959;51.244;5.724;2022-12-11T14:26:02;5.30;71.00
68922;DHT22;55959;51.244;5.724;2022-12-11T14:28:49;5.30;71.00
68922;DHT22;55959;51.244;5.724;2022-12-11T14:31:19;5.30;71.10
68922;DHT22;55959;51.244;5.724;2022-12-11T14:33:51;5.30;71.20
68922;DHT22;55959;51.244;5.724;2022-12-11T14:36:19;5.30;71.30
68922;DHT22;55959;51.244;5.724;2022-12-11T14:38:49;5.30;71.30
68922;DHT22;55959;51.244;5.724;2022-12-11T14:41:21;5.30;71.30
68922;DHT22;55959;51.244;5.724;2022-12-11T14:43:58;5.30;71.30
68922;DHT22;55959;51.244;5.724;2022-12-11T14:46:44;5.30;71.20
68922;DHT22;55959;51.244;5.724;2022-12-11T14:51:53;5.30;71.00
68922;DHT22;55959;51.244;5.724;2022-12-11T14:54:28;5.30;71.00
68922;DHT22;55959;51.244;5.724;2022-12-11T14:56:59;5.30;71.10
68922;DHT22;55959;51.244;5.724;2022-12-11T14:59:28;5.30;71.10
68922;DHT22;55959;51.244;5.724;2022-12-11T15:02:16;5.30;71.00
68922;DHT22;55959;51.244;5.724;2022-12-11T15:05:18;5.30;70.70
68922;DHT22;55959;51.244;5.724;2022-12-11T15:07:54;5.20;70.70
68922;DHT22;55959;51.244;5.724;2022-12-11T15:13:29;5.20;70.70
68922;DHT22;55959;51.244;5.724;2022-12-11T15:15:56;5.20;70.90
68922;DHT22;55959;51.244;5.724;2022-12-11T15:18:38;5.20;70.90
68922;DHT22;55959;51.244;5.724;2022-12-11T15:21:10;5.20;70.70
68922;DHT22;55959;51.244;5.724;2022-12-11T15:23:47;5.10;70.50
68922;DHT22;55959;51.244;5.724;2022-12-11T15:26:15;5.20;70.60
68922;DHT22;55959;51.244;5.724;2022-12-11T15:28:41;5.10;70.60
68922;DHT22;55959;51.244;5.724;2022-12-11T15:31:26;5.10;70.50
68922;DHT22;55959;51.244;5.724;2022-12-11T15:33:56;5.10;70.50
68922;DHT22;55959;51.244;5.724;2022-12-11T15:36:31;5.10;70.60
68922;DHT22;55959;51.244;5.724;2022-12-11T15:38:57;5.10;70.70
68922;DHT22;55959;51.244;5.724;2022-12-11T15:41:24;5.10;70.70
68922;DHT22;55959;51.244;5.724;2022-12-11T15:43:52;5.10;70.70
68922;DHT22;55959;51.244;5.724;2022-12-11T15:46:19;5.10;70.70
68922;DHT22;55959;51.244;5.724;2022-12-11T15:48:46;5.10;70.70
68922;DHT22;55959;51.244;5.724;2022-12-11T15:51:13;5.10;70.50
68922;DHT22;55959;51.244;5.724;2022-12-11T15:53:40;5.10;70.30
68922;DHT22;55959;51.244;5.724;2022-12-11T15:56:08;5.10;70.30
68922;DHT22;55959;51.244;5.724;2022-12-11T15:58:37;5.10;70.40
68922;DHT22;55959;51.244;5.724;2022-12-11T16:01:03;5.10;70.50
68922;DHT22;55959;51.244;5.724;2022-12-11T16:03:29;5.10;70.50
68922;DHT22;55959;51.244;5.724;2022-12-11T16:05:55;5.10;70.50
68922;DHT22;55959;51.244;5.724;2022-12-11T16:08:22;5.10;70.50
68922;DHT22;55959;51.244;5.724;2022-12-11T16:10:51;5.10;70.60
68922;DHT22;55959;51.244;5.724;2022-12-11T16:13:19;5.10;70.50
68922;DHT22;55959;51.244;5.724;2022-12-11T16:15:46;5.10;70.50
68922;DHT22;55959;51.244;5.724;2022-12-11T16:18:16;5.10;70.50
68922;DHT22;55959;51.244;5.724;2022-12-11T16:20:45;5.20;70.60
68922;DHT22;55959;51.244;5.724;2022-12-11T16:23:13;5.10;70.60
68922;DHT22;55959;51.244;5.724;2022-12-11T16:25:41;5.20;70.70
68922;DHT22;55959;51.244;5.724;2022-12-11T16:28:08;5.20;70.70
68922;DHT22;55959;51.244;5.724;2022-12-11T16:30:36;5.20;71.60
68922;DHT22;55959;51.244;5.724;2022-12-11T16:33:03;5.20;70.70
68922;DHT22;55959;51.244;5.724;2022-12-11T16:35:29;5.20;70.70
68922;DHT22;55959;51.244;5.724;2022-12-11T16:37:55;5.20;70.60
68922;DHT22;55959;51.244;5.724;2022-12-11T16:40:22;5.20;70.60
68922;DHT22;55959;51.244;5.724;2022-12-11T16:42:48;5.20;70.60
68922;DHT22;55959;51.244;5.724;2022-12-11T16:45:17;5.20;70.50
68922;DHT22;55959;51.244;5.724;2022-12-11T16:47:45;5.20;70.60
68922;DHT22;55959;51.244;5.724;2022-12-11T16:50:11;5.20;70.50
68922;DHT22;55959;51.244;5.724;2022-12-11T16:52:38;5.10;70.40
68922;DHT22;55959;51.244;5.724;2022-12-11T16:55:04;5.20;70.50
68922;DHT22;55959;51.244;5.724;2022-12-11T16:57:30;5.10;70.40
68922;DHT22;55959;51.244;5.724;2022-12-11T16:59:56;5.10;70.40
68922;DHT22;55959;51.244;5.724;2022-12-11T17:02:22;5.10;70.40
68922;DHT22;55959;51.244;5.724;2022-12-11T17:04:48;5.10;70.50
68922;DHT22;55959;51.244;5.724;2022-12-11T17:07:14;5.10;70.50
68922;DHT22;55959;51.244;5.724;2022-12-11T17:09:40;5.10;70.50
68922;DHT22;55959;51.244;5.724;2022-12-11T17:12:06;5.10;70.60
68922;DHT22;55959;51.244;5.724;2022-12-11T17:14:32;5.10;70.70
68922;DHT22;55959;51.244;5.724;2022-12-11T17:16:58;5.00;70.80
68922;DHT22;55959;51.244;5.724;2022-12-11T17:19:23;5.10;70.90
68922;DHT22;55959;51.244;5.724;2022-12-11T17:21:49;5.10;71.00
68922;DHT22;55959;51.244;5.724;2022-12-11T17:24:16;5.10;71.10